createdAt,value
2016-12-27T00:00:31.485Z,0
2016-12-27T00:01:46.423Z,0
2016-12-27T00:02:31.517Z,0
2016-12-27T00:03:31.536Z,0
2016-12-27T00:04:31.554Z,0
2016-12-27T00:05:31.574Z,0
2016-12-27T00:06:31.590Z,0
2016-12-27T00:07:31.608Z,0
2016-12-27T00:08:31.626Z,0
2016-12-27T00:09:31.640Z,0
2016-12-27T00:10:31.666Z,0
2016-12-27T00:11:46.596Z,0
2016-12-27T00:12:31.698Z,0
2016-12-27T00:13:31.763Z,0
2016-12-27T00:14:31.734Z,0
2016-12-27T00:15:46.665Z,0
2016-12-27T00:16:31.780Z,0
2016-12-27T00:17:31.784Z,0
2016-12-27T00:18:31.801Z,0
2016-12-27T00:19:31.817Z,0
2016-12-27T00:20:31.839Z,0
2016-12-27T00:21:31.853Z,0
2016-12-27T00:22:31.873Z,0
2016-12-27T00:23:46.806Z,0
2016-12-27T00:24:31.904Z,0
2016-12-27T00:25:31.923Z,0
2016-12-27T00:26:31.940Z,0
2016-12-27T00:28:31.975Z,0
2016-12-27T00:29:32.007Z,0
2016-12-27T00:30:32.012Z,0
2016-12-27T00:31:46.953Z,0
2016-12-27T00:32:46.971Z,0
2016-12-27T00:33:32.067Z,0
2016-12-27T00:34:32.080Z,0
2016-12-27T00:35:32.098Z,0
2016-12-27T00:36:32.122Z,0
2016-12-27T00:37:47.054Z,0
2016-12-27T00:38:32.152Z,0
2016-12-27T00:39:32.175Z,0
2016-12-27T00:40:32.194Z,0
2016-12-27T00:41:32.206Z,0
2016-12-27T00:43:47.163Z,0
2016-12-27T00:44:32.287Z,0
2016-12-27T00:45:32.277Z,0
2016-12-27T00:46:32.298Z,0
2016-12-27T00:47:47.230Z,0
2016-12-27T00:48:32.331Z,0
2016-12-27T00:49:32.348Z,0
2016-12-27T00:50:32.366Z,0
2016-12-27T00:51:32.382Z,0
2016-12-27T00:52:32.402Z,0
2016-12-27T00:53:32.418Z,0
2016-12-27T00:54:32.437Z,0
2016-12-27T00:55:32.454Z,0
2016-12-27T00:56:32.473Z,0
2016-12-27T00:57:32.494Z,0
2016-12-27T00:58:47.427Z,0
2016-12-27T00:59:32.526Z,0
2016-12-27T01:00:32.544Z,0
2016-12-27T01:01:32.563Z,0
2016-12-27T01:02:32.575Z,0
2016-12-27T01:03:47.515Z,0
2016-12-27T01:04:32.620Z,0
2016-12-27T01:05:32.633Z,0
2016-12-27T01:06:32.648Z,0
2016-12-27T01:08:32.687Z,0
2016-12-27T01:09:32.706Z,0
2016-12-27T01:10:47.639Z,0
2016-12-27T01:11:47.657Z,0
2016-12-27T01:12:32.763Z,0
2016-12-27T01:13:32.774Z,0
2016-12-27T01:15:32.811Z,0
2016-12-27T01:17:32.845Z,0
2016-12-27T01:18:47.782Z,0
2016-12-27T01:19:32.883Z,0
2016-12-27T01:20:32.897Z,0
2016-12-27T01:21:32.922Z,0
2016-12-27T01:22:32.933Z,0
2016-12-27T01:23:32.955Z,0
2016-12-27T01:24:47.890Z,0
2016-12-27T01:25:32.992Z,0
2016-12-27T01:26:33.006Z,0
2016-12-27T01:27:33.024Z,0
2016-12-27T01:28:33.037Z,0
2016-12-27T01:29:33.063Z,0
2016-12-27T01:30:33.079Z,0
2016-12-27T01:31:48.023Z,0
2016-12-27T01:32:33.115Z,0
2016-12-27T01:33:33.130Z,0
2016-12-27T01:34:33.150Z,0
2016-12-27T01:35:33.171Z,0
2016-12-27T01:36:33.181Z,0
2016-12-27T01:37:33.203Z,0
2016-12-27T01:38:33.219Z,0
2016-12-27T01:39:48.157Z,0
2016-12-27T01:40:33.256Z,0
2016-12-27T01:41:48.191Z,0
2016-12-27T01:42:33.294Z,0
2016-12-27T01:43:48.225Z,0
2016-12-27T01:44:33.325Z,0
2016-12-27T01:45:48.264Z,0
2016-12-27T01:46:33.361Z,0
2016-12-27T01:47:33.381Z,0
2016-12-27T01:48:33.701Z,0
2016-12-27T01:49:33.417Z,0
2016-12-27T01:50:48.355Z,0
2016-12-27T01:51:33.453Z,0
2016-12-27T01:52:33.469Z,0
2016-12-27T01:53:33.514Z,0
2016-12-27T01:54:33.507Z,0
2016-12-27T01:55:33.523Z,0
2016-12-27T01:56:33.539Z,0
2016-12-27T01:57:33.586Z,0
2016-12-27T02:01:33.654Z,0
2016-12-27T02:03:48.583Z,0
2016-12-27T02:04:33.684Z,0
2016-12-27T02:05:33.700Z,0
2016-12-27T02:06:48.636Z,0
2016-12-27T02:07:33.734Z,0
2016-12-27T02:08:33.878Z,0
2016-12-27T02:09:33.773Z,0
2016-12-27T02:10:33.795Z,0
2016-12-27T02:11:33.809Z,0
2016-12-27T02:12:33.825Z,0
2016-12-27T02:13:33.846Z,0
2016-12-27T02:14:33.864Z,0
2016-12-27T02:15:33.881Z,0
2016-12-27T02:16:33.895Z,0
2016-12-27T02:17:33.917Z,0
2016-12-27T02:18:48.851Z,0
2016-12-27T02:21:33.987Z,0
2016-12-27T02:22:48.922Z,0
2016-12-27T02:23:34.021Z,0
2016-12-27T02:24:34.037Z,0
2016-12-27T02:25:34.359Z,0
2016-12-27T02:26:34.072Z,0
2016-12-27T02:27:34.094Z,0
2016-12-27T02:28:34.112Z,0
2016-12-27T02:29:34.128Z,0
2016-12-27T02:30:34.145Z,0
2016-12-27T02:31:34.164Z,0
2016-12-27T02:32:34.179Z,0
2016-12-27T02:33:34.198Z,0
2016-12-27T02:34:49.134Z,0
2016-12-27T02:35:34.237Z,0
2016-12-27T02:36:34.271Z,0
2016-12-27T02:37:34.269Z,0
2016-12-27T02:38:49.211Z,0
2016-12-27T02:39:34.305Z,0
2016-12-27T02:40:34.325Z,0
2016-12-27T02:41:34.343Z,0
2016-12-27T02:42:34.359Z,0
2016-12-27T02:43:34.388Z,0
2016-12-27T02:44:34.400Z,0
2016-12-27T02:45:49.330Z,0
2016-12-27T02:46:34.431Z,0
2016-12-27T02:47:34.447Z,0
2016-12-27T02:49:34.522Z,0
2016-12-27T02:50:34.502Z,0
2016-12-27T02:51:34.519Z,0
2016-12-27T02:52:34.539Z,0
2016-12-27T02:53:49.472Z,0
2016-12-27T02:54:34.574Z,0
2016-12-27T02:55:34.589Z,0
2016-12-27T02:56:34.608Z,0
2016-12-27T02:57:34.626Z,0
2016-12-27T02:58:34.642Z,0
2016-12-27T02:59:49.581Z,0
2016-12-27T03:00:49.597Z,0
2016-12-27T03:01:49.622Z,0
2016-12-27T03:02:49.631Z,0
2016-12-27T03:04:49.669Z,0
2016-12-27T03:05:49.686Z,0
2016-12-27T03:06:49.704Z,0
2016-12-27T03:07:34.803Z,0
2016-12-27T03:08:34.825Z,0
2016-12-27T03:09:34.841Z,0
2016-12-27T03:10:34.864Z,0
2016-12-27T03:11:34.899Z,0
2016-12-27T03:12:34.916Z,0
2016-12-27T03:13:34.908Z,0
2016-12-27T03:14:34.933Z,0
2016-12-27T03:15:49.864Z,0
2016-12-27T03:16:34.963Z,0
2016-12-27T03:17:34.979Z,0
2016-12-27T03:19:35.020Z,0
2016-12-27T03:20:35.035Z,0
2016-12-27T03:21:35.054Z,0
2016-12-27T03:22:35.072Z,0
2016-12-27T03:23:35.086Z,0
2016-12-27T03:24:35.109Z,0
2016-12-27T03:25:50.045Z,0
2016-12-27T03:26:35.141Z,0
2016-12-27T03:27:35.158Z,0
2016-12-27T03:28:35.178Z,0
2016-12-27T03:29:35.192Z,0
2016-12-27T03:30:50.133Z,0
2016-12-27T03:31:35.232Z,0
2016-12-27T03:32:35.249Z,0
2016-12-27T03:33:35.269Z,0
2016-12-27T03:34:35.286Z,0
2016-12-27T03:35:35.299Z,0
2016-12-27T03:37:35.337Z,0
2016-12-27T03:38:35.382Z,0
2016-12-27T03:40:35.393Z,0
2016-12-27T03:41:50.329Z,0
2016-12-27T03:42:35.428Z,0
2016-12-27T03:43:35.442Z,0
2016-12-27T03:44:35.461Z,0
2016-12-27T03:45:35.479Z,0
2016-12-27T03:46:35.495Z,0
2016-12-27T03:47:35.516Z,0
2016-12-27T03:48:35.536Z,0
2016-12-27T03:49:35.551Z,0
2016-12-27T03:50:35.567Z,0
2016-12-27T03:51:50.505Z,0
2016-12-27T03:52:50.522Z,0
2016-12-27T03:53:35.625Z,0
2016-12-27T03:54:35.641Z,0
2016-12-27T03:55:35.659Z,0
2016-12-27T03:56:35.680Z,0
2016-12-27T03:57:50.614Z,0
2016-12-27T03:58:35.712Z,0
2016-12-27T03:59:35.728Z,0
2016-12-27T04:00:35.748Z,0
2016-12-27T04:01:35.767Z,0
2016-12-27T04:02:35.782Z,0
2016-12-27T04:03:35.805Z,0
2016-12-27T04:04:50.738Z,0
2016-12-27T04:05:35.841Z,0
2016-12-27T04:06:35.855Z,0
2016-12-27T04:07:35.873Z,0
2016-12-27T04:08:35.896Z,0
2016-12-27T04:10:35.929Z,0
2016-12-27T04:11:35.945Z,0
2016-12-27T04:12:35.968Z,0
2016-12-27T04:13:50.900Z,0
2016-12-27T04:14:36.002Z,0
2016-12-27T04:15:36.018Z,0
2016-12-27T04:16:36.343Z,0
2016-12-27T04:17:36.054Z,0
2016-12-27T04:18:36.074Z,0
2016-12-27T04:19:51.010Z,0
2016-12-27T04:20:36.110Z,0
2016-12-27T04:21:36.128Z,0
2016-12-27T04:22:36.147Z,0
2016-12-27T04:23:36.164Z,0
2016-12-27T04:24:36.179Z,0
2016-12-27T04:27:36.240Z,0
2016-12-27T04:28:51.187Z,0
2016-12-27T04:29:36.276Z,0
2016-12-27T04:30:36.293Z,0
2016-12-27T04:31:36.310Z,0
2016-12-27T04:32:51.250Z,0
2016-12-27T04:33:51.268Z,0
2016-12-27T04:34:36.364Z,0
2016-12-27T04:35:36.387Z,0
2016-12-27T04:36:51.323Z,0
2016-12-27T04:37:36.419Z,0
2016-12-27T04:38:51.357Z,0
2016-12-27T04:39:51.385Z,0
2016-12-27T04:40:36.479Z,0
2016-12-27T04:41:51.410Z,0
2016-12-27T04:42:36.513Z,0
2016-12-27T04:43:36.841Z,0
2016-12-27T04:44:36.548Z,0
2016-12-27T04:45:36.567Z,0
2016-12-27T04:46:36.584Z,0
2016-12-27T04:47:36.602Z,0
2016-12-27T04:48:36.619Z,0
2016-12-27T04:49:36.643Z,0
2016-12-27T04:50:36.656Z,0
2016-12-27T04:51:36.678Z,0
2016-12-27T04:52:36.691Z,0
2016-12-27T04:53:51.628Z,0
2016-12-27T04:54:36.730Z,0
2016-12-27T04:55:36.753Z,0
2016-12-27T04:56:36.767Z,0
2016-12-27T04:58:36.802Z,0
2016-12-27T05:01:06.683Z,0
2016-12-27T05:01:36.856Z,0
2016-12-27T05:02:36.877Z,0
2016-12-27T05:03:36.892Z,0
2016-12-27T05:04:36.910Z,0
2016-12-27T05:05:36.929Z,0
2016-12-27T05:06:36.948Z,0
2016-12-27T05:07:36.965Z,0
2016-12-27T05:08:36.981Z,0
2016-12-27T05:09:37.006Z,0
2016-12-27T05:10:37.025Z,0
2016-12-27T05:13:37.078Z,0
2016-12-27T05:14:37.097Z,0
2016-12-27T05:15:37.136Z,0
2016-12-27T05:16:52.047Z,0
2016-12-27T05:17:37.148Z,0
2016-12-27T05:18:37.164Z,0
2016-12-27T05:19:37.185Z,0
2016-12-27T05:20:37.207Z,0
2016-12-27T05:21:37.224Z,0
2016-12-27T05:22:37.238Z,0
2016-12-27T05:23:37.253Z,0
2016-12-27T05:24:37.276Z,0
2016-12-27T05:25:52.209Z,0
2016-12-27T05:26:52.230Z,0
2016-12-27T05:27:37.333Z,0
2016-12-27T05:28:37.348Z,0
2016-12-27T05:29:37.365Z,0
2016-12-27T05:30:37.383Z,0
2016-12-27T05:31:37.413Z,0
2016-12-27T05:32:52.336Z,0
2016-12-27T05:33:37.438Z,0
2016-12-27T05:34:37.454Z,0
2016-12-27T05:35:37.480Z,0
2016-12-27T05:36:37.493Z,0
2016-12-27T05:37:37.508Z,0
2016-12-27T05:38:37.530Z,0
2016-12-27T05:39:52.465Z,0
2016-12-27T05:40:37.568Z,0
2016-12-27T05:41:52.500Z,0
2016-12-27T05:42:37.603Z,0
2016-12-27T05:43:37.618Z,0
2016-12-27T05:45:37.654Z,0
2016-12-27T05:46:37.673Z,0
2016-12-27T05:47:37.693Z,0
2016-12-27T05:48:52.628Z,0
2016-12-27T05:49:37.730Z,0
2016-12-27T05:50:37.751Z,0
2016-12-27T05:51:37.767Z,0
2016-12-27T05:52:37.787Z,0
2016-12-27T05:53:37.804Z,0
2016-12-27T05:54:37.971Z,0
2016-12-27T05:55:37.837Z,0
2016-12-27T05:56:37.858Z,0
2016-12-27T05:57:37.874Z,0
2016-12-27T05:58:37.892Z,0
2016-12-27T06:01:38.260Z,0
2016-12-27T06:03:52.905Z,0
2016-12-27T06:04:38.005Z,0
2016-12-27T06:05:38.020Z,0
2016-12-27T06:06:38.040Z,0
2016-12-27T06:07:38.065Z,0
2016-12-27T06:08:38.078Z,0
2016-12-27T06:09:38.094Z,0
2016-12-27T06:10:38.114Z,0
2016-12-27T06:11:38.131Z,0
2016-12-27T06:12:38.153Z,0
2016-12-27T06:13:53.121Z,0
2016-12-27T06:14:38.190Z,0
2016-12-27T06:15:38.207Z,0
2016-12-27T06:16:53.141Z,0
2016-12-27T06:17:38.242Z,0
2016-12-27T06:18:38.265Z,0
2016-12-27T06:19:38.284Z,0
2016-12-27T06:20:38.299Z,0
2016-12-27T06:21:38.314Z,0
2016-12-27T06:22:53.256Z,0
2016-12-27T06:23:38.354Z,0
2016-12-27T06:24:53.291Z,0
2016-12-27T06:25:38.397Z,0
2016-12-27T06:26:38.407Z,0
2016-12-27T06:27:53.342Z,0
2016-12-27T06:28:38.446Z,0
2016-12-27T06:29:38.460Z,0
2016-12-27T06:30:53.400Z,0
2016-12-27T06:31:38.501Z,0
2016-12-27T06:33:38.535Z,0
2016-12-27T06:34:38.555Z,0
2016-12-27T06:35:53.490Z,0
2016-12-27T06:36:38.589Z,0
2016-12-27T06:37:38.608Z,0
2016-12-27T06:38:38.625Z,0
2016-12-27T06:39:38.644Z,0
2016-12-27T06:40:38.664Z,0
2016-12-27T06:41:38.683Z,0
2016-12-27T06:42:38.700Z,0
2016-12-27T06:43:53.633Z,0
2016-12-27T06:45:38.753Z,4
2016-12-27T06:46:53.689Z,0
2016-12-27T06:47:38.789Z,4
2016-12-27T06:48:38.821Z,4
2016-12-27T06:49:38.824Z,0
2016-12-27T06:50:38.853Z,4
2016-12-27T06:51:53.784Z,4
2016-12-27T06:52:38.883Z,8
2016-12-27T06:53:38.897Z,12
2016-12-27T06:54:53.839Z,8
2016-12-27T06:55:38.936Z,8
2016-12-27T06:56:38.952Z,8
2016-12-27T06:57:38.971Z,8
2016-12-27T06:58:53.907Z,8
2016-12-27T06:59:39.008Z,8
2016-12-27T07:00:39.024Z,8
2016-12-27T07:01:39.041Z,12
2016-12-27T07:02:39.061Z,12
2016-12-27T07:03:53.997Z,12
2016-12-27T07:04:54.015Z,16
2016-12-27T07:05:39.119Z,16
2016-12-27T07:06:39.136Z,16
2016-12-27T07:07:54.068Z,16
2016-12-27T07:08:39.171Z,12
2016-12-27T07:09:39.190Z,16
2016-12-27T07:10:54.127Z,20
2016-12-27T07:11:54.145Z,20
2016-12-27T07:12:39.242Z,24
2016-12-27T07:14:39.276Z,44
2016-12-27T07:15:54.214Z,64
2016-12-27T07:16:39.314Z,76
2016-12-27T07:18:54.270Z,124
2016-12-27T07:19:39.377Z,140
2016-12-27T07:20:39.389Z,188
2016-12-27T07:21:39.405Z,244
2016-12-27T07:22:39.422Z,284
2016-12-27T07:23:54.359Z,352
2016-12-27T07:24:39.483Z,384
2016-12-27T07:25:39.480Z,372
2016-12-27T07:26:39.494Z,400
2016-12-27T07:27:54.435Z,460
2016-12-27T07:28:39.534Z,468
2016-12-27T07:29:39.551Z,484
2016-12-27T07:30:54.486Z,520
2016-12-27T07:31:39.587Z,552
2016-12-27T07:32:39.605Z,608
2016-12-27T07:34:54.559Z,584
2016-12-27T07:35:54.577Z,568
2016-12-27T07:37:39.697Z,520
2016-12-27T07:38:54.632Z,472
2016-12-27T07:39:39.733Z,480
2016-12-27T07:40:39.756Z,436
2016-12-27T07:41:39.775Z,468
2016-12-27T07:42:39.813Z,480
2016-12-27T07:43:39.807Z,484
2016-12-27T07:44:39.822Z,516
2016-12-27T07:45:39.844Z,480
2016-12-27T07:46:39.885Z,436
2016-12-27T07:47:39.879Z,372
2016-12-27T07:48:40.199Z,400
2016-12-27T07:49:39.917Z,424
2016-12-27T07:51:54.869Z,492
2016-12-27T07:52:39.990Z,556
2016-12-27T07:53:39.987Z,636
2016-12-27T07:54:40.002Z,692
2016-12-27T07:55:40.024Z,812
2016-12-27T07:56:40.058Z,716
2016-12-27T07:57:40.060Z,752
2016-12-27T07:58:40.080Z,872
2016-12-27T07:59:40.096Z,1004
2016-12-27T08:00:40.137Z,904
2016-12-27T08:01:40.141Z,868
2016-12-27T08:02:55.068Z,1036
2016-12-27T08:03:40.169Z,1072
2016-12-27T08:04:40.185Z,1068
2016-12-27T08:05:55.123Z,1236
2016-12-27T08:06:40.230Z,1464
2016-12-27T08:07:40.241Z,1524
2016-12-27T08:08:40.260Z,1356
2016-12-27T08:09:40.279Z,1196
2016-12-27T08:10:55.215Z,1272
2016-12-27T08:11:40.318Z,1356
2016-12-27T08:12:40.332Z,1412
2016-12-27T08:13:40.378Z,1424
2016-12-27T08:14:40.370Z,1648
2016-12-27T08:15:40.414Z,2088
2016-12-27T08:16:40.410Z,1992
2016-12-27T08:17:40.422Z,1728
2016-12-27T08:18:40.446Z,1592
2016-12-27T08:19:40.467Z,1652
2016-12-27T08:20:40.479Z,1532
2016-12-27T08:22:40.515Z,1264
2016-12-27T08:23:40.536Z,1412
2016-12-27T08:24:40.554Z,1564
2016-12-27T08:25:40.875Z,1468
2016-12-27T08:26:55.512Z,1272
2016-12-27T08:27:40.607Z,1164
2016-12-27T08:28:40.626Z,1068
2016-12-27T08:29:40.646Z,1032
2016-12-27T08:30:40.664Z,876
2016-12-27T08:31:40.682Z,836
2016-12-27T08:32:40.701Z,944
2016-12-27T08:33:55.638Z,828
2016-12-27T08:34:40.737Z,776
2016-12-27T08:35:40.758Z,700
2016-12-27T08:36:40.774Z,644
2016-12-27T08:38:40.813Z,616
2016-12-27T08:39:55.747Z,640
2016-12-27T08:40:40.851Z,820
2016-12-27T08:41:41.221Z,984
2016-12-27T08:42:55.804Z,644
2016-12-27T08:43:40.906Z,508
2016-12-27T08:44:40.974Z,516
2016-12-27T08:45:40.941Z,532
2016-12-27T08:46:55.913Z,508
2016-12-27T08:47:40.978Z,532
2016-12-27T08:48:41.049Z,652
2016-12-27T08:49:41.115Z,668
2016-12-27T08:50:41.042Z,620
2016-12-27T08:51:41.052Z,692
2016-12-27T08:52:41.078Z,784
2016-12-27T08:53:41.088Z,844
2016-12-27T08:54:41.111Z,904
2016-12-27T08:55:41.127Z,776
2016-12-27T08:56:41.151Z,668
2016-12-27T08:57:41.164Z,632
2016-12-27T08:58:56.102Z,604
2016-12-27T08:59:41.200Z,544
2016-12-27T09:00:41.222Z,604
2016-12-27T09:01:41.240Z,648
2016-12-27T09:02:41.255Z,812
2016-12-27T09:03:41.276Z,840
2016-12-27T09:04:41.292Z,808
2016-12-27T09:05:41.314Z,940
2016-12-27T09:06:41.332Z,940
2016-12-27T09:07:41.350Z,788
2016-12-27T09:08:41.372Z,704
2016-12-27T09:09:56.306Z,812
2016-12-27T09:10:56.324Z,964
2016-12-27T09:11:41.436Z,1104
2016-12-27T09:12:41.450Z,1032
2016-12-27T09:13:56.379Z,888
2016-12-27T09:14:41.484Z,852
2016-12-27T09:15:41.503Z,884
2016-12-27T09:16:41.520Z,932
2016-12-27T09:17:41.538Z,996
2016-12-27T09:18:41.560Z,1076
2016-12-27T09:19:41.573Z,1252
2016-12-27T09:20:41.597Z,1252
2016-12-27T09:21:41.617Z,1208
2016-12-27T09:22:41.631Z,1356
2016-12-27T09:23:41.648Z,1352
2016-12-27T09:24:56.590Z,956
2016-12-27T09:25:41.692Z,760
2016-12-27T09:26:41.708Z,704
2016-12-27T09:27:41.733Z,608
2016-12-27T09:28:41.743Z,736
2016-12-27T09:29:41.765Z,860
2016-12-27T09:30:41.784Z,1008
2016-12-27T09:31:41.800Z,1124
2016-12-27T09:32:41.819Z,1048
2016-12-27T09:33:41.838Z,936
2016-12-27T09:34:41.886Z,1028
2016-12-27T09:35:41.878Z,1172
2016-12-27T09:36:56.811Z,1168
2016-12-27T09:37:41.912Z,1208
2016-12-27T09:38:41.930Z,1256
2016-12-27T09:39:41.950Z,1396
2016-12-27T09:40:56.915Z,1428
2016-12-27T09:41:41.988Z,1344
2016-12-27T09:42:42.003Z,1284
2016-12-27T09:43:42.025Z,1348
2016-12-27T09:44:42.045Z,1376
2016-12-27T09:45:56.981Z,1248
2016-12-27T09:46:42.079Z,1252
2016-12-27T09:47:42.099Z,1236
2016-12-27T09:48:42.118Z,1176
2016-12-27T09:49:42.139Z,1088
2016-12-27T09:50:42.156Z,976
2016-12-27T09:51:42.178Z,1048
2016-12-27T09:53:42.210Z,1140
2016-12-27T09:54:42.232Z,1048
2016-12-27T09:55:42.249Z,1212
2016-12-27T09:57:42.287Z,1120
2016-12-27T09:58:42.308Z,1172
2016-12-27T09:59:42.325Z,1136
2016-12-27T10:00:42.349Z,1096
2016-12-27T10:01:57.282Z,1160
2016-12-27T10:02:42.383Z,1156
2016-12-27T10:03:42.400Z,1160
2016-12-27T10:04:42.422Z,1152
2016-12-27T10:05:42.444Z,1172
2016-12-27T10:06:42.456Z,1172
2016-12-27T10:07:42.478Z,1144
2016-12-27T10:08:42.496Z,1104
2016-12-27T10:09:42.513Z,1084
2016-12-27T10:10:42.539Z,1160
2016-12-27T10:11:42.571Z,1304
2016-12-27T10:12:42.570Z,1372
2016-12-27T10:13:42.594Z,1360
2016-12-27T10:14:57.530Z,1268
2016-12-27T10:16:42.647Z,1140
2016-12-27T10:18:12.507Z,1216
2016-12-27T10:18:42.683Z,1232
2016-12-27T10:19:42.706Z,1228
2016-12-27T10:20:42.722Z,1160
2016-12-27T10:21:42.742Z,1264
2016-12-27T10:22:42.762Z,1352
2016-12-27T10:23:42.783Z,1340
2016-12-27T10:24:42.800Z,1380
2016-12-27T10:25:42.814Z,1400
2016-12-27T10:26:42.838Z,1448
2016-12-27T10:27:42.861Z,1540
2016-12-27T10:28:42.873Z,1664
2016-12-27T10:29:42.896Z,1752
2016-12-27T10:30:43.220Z,1712
2016-12-27T10:31:42.930Z,1660
2016-12-27T10:32:42.950Z,1640
2016-12-27T10:33:57.890Z,1588
2016-12-27T10:34:42.989Z,1548
2016-12-27T10:35:43.006Z,1528
2016-12-27T10:36:43.324Z,1632
2016-12-27T10:37:43.044Z,1776
2016-12-27T10:38:57.983Z,1684
2016-12-27T10:39:43.077Z,1684
2016-12-27T10:40:58.020Z,1664
2016-12-27T10:41:43.122Z,1764
2016-12-27T10:42:43.141Z,1728
2016-12-27T10:43:43.163Z,1724
2016-12-27T10:44:43.180Z,1692
2016-12-27T10:45:58.116Z,1788
2016-12-27T10:46:43.213Z,1940
2016-12-27T10:48:58.174Z,2256
2016-12-27T10:49:43.271Z,2264
2016-12-27T10:50:43.290Z,2200
2016-12-27T10:51:43.313Z,2084
2016-12-27T10:52:58.251Z,2028
2016-12-27T10:53:43.349Z,1984
2016-12-27T10:54:43.377Z,1932
2016-12-27T10:55:43.391Z,1880
2016-12-27T10:56:43.405Z,1876
2016-12-27T10:57:43.426Z,1904
2016-12-27T10:58:58.360Z,1864
2016-12-27T10:59:58.385Z,1980
2016-12-27T11:00:43.485Z,2092
2016-12-27T11:01:43.502Z,2240
2016-12-27T11:02:43.522Z,2420
2016-12-27T11:03:43.537Z,2688
2016-12-27T11:04:43.559Z,2524
2016-12-27T11:05:43.575Z,2036
2016-12-27T11:06:43.596Z,1856
2016-12-27T11:07:43.614Z,1852
2016-12-27T11:08:43.638Z,1876
2016-12-27T11:09:43.652Z,2108
2016-12-27T11:10:58.592Z,2244
2016-12-27T11:11:43.689Z,2292
2016-12-27T11:12:43.710Z,2284
2016-12-27T11:13:43.728Z,2376
2016-12-27T11:14:43.752Z,2304
2016-12-27T11:16:43.788Z,2440
2016-12-27T11:18:43.824Z,2844
2016-12-27T11:19:43.841Z,3056
2016-12-27T11:20:58.782Z,2876
2016-12-27T11:21:43.879Z,2704
2016-12-27T11:22:43.926Z,2492
2016-12-27T11:23:43.917Z,2244
2016-12-27T11:24:43.940Z,2104
2016-12-27T11:25:58.877Z,1996
2016-12-27T11:26:44.003Z,1932
2016-12-27T11:27:58.913Z,1692
2016-12-27T11:28:44.014Z,1860
2016-12-27T11:29:44.036Z,2180
2016-12-27T11:30:44.051Z,2252
2016-12-27T11:31:44.070Z,2088
2016-12-27T11:33:44.108Z,2108
2016-12-27T11:34:44.138Z,2388
2016-12-27T11:35:44.146Z,2580
2016-12-27T11:36:59.091Z,2584
2016-12-27T11:37:44.189Z,2712
2016-12-27T11:38:44.205Z,2820
2016-12-27T11:39:44.224Z,2896
2016-12-27T11:40:44.244Z,2844
2016-12-27T11:41:44.265Z,2808
2016-12-27T11:42:44.282Z,3016
2016-12-27T11:43:59.220Z,3192
2016-12-27T11:44:44.319Z,3476
2016-12-27T11:45:44.337Z,3664
2016-12-27T11:47:44.376Z,3056
2016-12-27T11:48:44.403Z,3032
2016-12-27T11:49:44.416Z,3148
2016-12-27T11:50:44.739Z,3524
2016-12-27T11:51:44.462Z,3640
2016-12-27T11:52:59.393Z,3572
2016-12-27T11:53:44.493Z,3500
2016-12-27T11:54:44.514Z,3412
2016-12-27T11:55:44.541Z,3464
2016-12-27T11:56:44.552Z,3404
2016-12-27T11:57:44.571Z,3104
2016-12-27T11:58:44.615Z,2832
2016-12-27T11:59:44.614Z,2520
2016-12-27T12:00:44.632Z,2180
2016-12-27T12:01:44.652Z,2132
2016-12-27T12:02:59.590Z,2292
2016-12-27T12:03:44.687Z,2308
2016-12-27T12:04:44.713Z,2720
2016-12-27T12:05:44.729Z,3284
2016-12-27T12:06:44.755Z,3340
2016-12-27T12:07:44.767Z,2948
2016-12-27T12:08:59.736Z,2860
2016-12-27T12:09:44.814Z,3108
2016-12-27T12:10:44.826Z,3188
2016-12-27T12:11:44.847Z,3236
2016-12-27T12:12:44.864Z,3496
2016-12-27T12:13:59.805Z,3468
2016-12-27T12:14:44.902Z,3536
2016-12-27T12:15:44.923Z,3352
2016-12-27T12:16:59.862Z,3136
2016-12-27T12:17:45.277Z,3108
2016-12-27T12:19:45.002Z,2860
2016-12-27T12:20:59.943Z,2708
2016-12-27T12:22:45.067Z,2712
2016-12-27T12:24:00.002Z,2820
2016-12-27T12:24:45.107Z,2860
2016-12-27T12:25:45.122Z,2920
2016-12-27T12:26:45.148Z,2916
2016-12-27T12:27:45.163Z,3096
2016-12-27T12:29:00.150Z,3212
2016-12-27T12:29:45.200Z,3212
2016-12-27T12:30:45.224Z,3784
2016-12-27T12:31:45.243Z,3464
2016-12-27T12:32:45.262Z,3812
2016-12-27T12:33:45.279Z,3796
2016-12-27T12:35:45.324Z,3984
2016-12-27T12:38:00.308Z,3956
2016-12-27T12:38:45.380Z,4028
2016-12-27T12:39:45.398Z,3748
2016-12-27T12:40:45.421Z,3340
2016-12-27T12:41:45.437Z,3372
2016-12-27T12:42:45.458Z,3244
2016-12-27T12:43:45.782Z,2972
2016-12-27T12:44:45.499Z,3156
2016-12-27T12:46:00.438Z,3100
2016-12-27T12:47:00.456Z,3324
2016-12-27T12:48:00.475Z,3152
2016-12-27T12:48:45.585Z,2708
2016-12-27T12:49:45.597Z,2444
2016-12-27T12:51:00.538Z,2408
2016-12-27T12:52:00.556Z,2448
2016-12-27T12:52:45.654Z,2596
2016-12-27T12:53:45.680Z,2676
2016-12-27T12:56:00.633Z,2340
2016-12-27T12:56:45.739Z,2160
2016-12-27T12:57:45.755Z,2020
2016-12-27T12:58:45.772Z,1892
2016-12-27T12:59:45.794Z,1916
2016-12-27T13:01:00.734Z,2100
2016-12-27T13:01:45.834Z,2164
2016-12-27T13:02:45.854Z,2208
2016-12-27T13:04:45.898Z,2200
2016-12-27T13:05:45.912Z,2200
2016-12-27T13:07:00.851Z,2248
2016-12-27T13:08:00.869Z,2504
2016-12-27T13:08:45.972Z,2576
2016-12-27T13:09:45.990Z,2236
2016-12-27T13:10:46.008Z,2172
2016-12-27T13:12:00.947Z,1980
2016-12-27T13:12:46.047Z,1948
2016-12-27T13:13:46.071Z,1896
2016-12-27T13:14:46.094Z,2476
2016-12-27T13:15:46.130Z,2460
2016-12-27T13:16:46.127Z,2556
2016-12-27T13:17:46.146Z,2452
2016-12-27T13:19:46.184Z,2216
2016-12-27T13:20:46.205Z,1996
2016-12-27T13:21:46.228Z,1696
2016-12-27T13:22:46.243Z,1608
2016-12-27T13:23:46.263Z,1636
2016-12-27T13:24:46.291Z,1660
2016-12-27T13:25:46.307Z,1728
2016-12-27T13:26:46.323Z,1692
2016-12-27T13:28:01.287Z,1580
2016-12-27T13:28:46.359Z,1572
2016-12-27T13:29:46.406Z,1668
2016-12-27T13:30:46.401Z,1828
2016-12-27T13:31:46.420Z,1876
2016-12-27T13:32:46.438Z,1740
2016-12-27T13:33:46.463Z,1688
2016-12-27T13:35:01.397Z,1884
2016-12-27T13:35:46.497Z,1816
2016-12-27T13:36:46.522Z,1740
2016-12-27T13:37:46.536Z,1552
2016-12-27T13:38:46.556Z,1528
2016-12-27T13:40:01.801Z,1480
2016-12-27T13:40:46.605Z,1444
2016-12-27T13:41:46.615Z,1400
2016-12-27T13:42:46.634Z,1388
2016-12-27T13:44:01.574Z,1420
2016-12-27T13:44:46.673Z,1456
2016-12-27T13:45:46.694Z,1432
2016-12-27T13:46:46.713Z,1364
2016-12-27T13:47:46.733Z,1336
2016-12-27T13:48:46.750Z,1296
2016-12-27T13:49:46.767Z,1280
2016-12-27T13:50:46.789Z,1260
2016-12-27T13:51:46.810Z,1248
2016-12-27T13:52:46.829Z,1236
2016-12-27T13:53:46.849Z,1240
2016-12-27T13:55:01.785Z,1244
2016-12-27T13:56:01.806Z,1236
2016-12-27T13:57:46.927Z,1272
2016-12-27T13:59:01.865Z,1284
2016-12-27T13:59:46.965Z,1272
2016-12-27T14:00:46.983Z,1244
2016-12-27T14:01:47.008Z,1224
2016-12-27T14:02:47.022Z,1220
2016-12-27T14:03:47.039Z,1204
2016-12-27T14:04:47.063Z,1188
2016-12-27T14:05:47.078Z,1164
2016-12-27T14:06:47.408Z,1132
2016-12-27T14:07:47.120Z,1128
2016-12-27T14:08:47.135Z,1124
2016-12-27T14:10:02.076Z,1080
2016-12-27T14:10:47.177Z,1068
2016-12-27T14:11:47.197Z,1052
2016-12-27T14:13:47.232Z,1052
2016-12-27T14:14:47.252Z,1056
2016-12-27T14:15:47.269Z,1044
2016-12-27T14:16:47.288Z,1028
2016-12-27T14:17:47.308Z,1012
2016-12-27T14:18:47.324Z,996
2016-12-27T14:19:47.347Z,976
2016-12-27T14:20:47.362Z,960
2016-12-27T14:21:47.386Z,960
2016-12-27T14:22:47.400Z,924
2016-12-27T14:23:47.420Z,908
2016-12-27T14:25:02.357Z,868
2016-12-27T14:26:02.377Z,840
2016-12-27T14:26:47.479Z,820
2016-12-27T14:27:47.504Z,796
2016-12-27T14:28:47.517Z,760
2016-12-27T14:29:47.535Z,728
2016-12-27T14:31:02.471Z,692
2016-12-27T14:31:47.573Z,680
2016-12-27T14:32:47.594Z,656
2016-12-27T14:33:47.610Z,636
2016-12-27T14:34:47.628Z,616
2016-12-27T14:35:47.952Z,592
2016-12-27T14:37:02.586Z,556
2016-12-27T14:37:47.690Z,540
2016-12-27T14:39:02.622Z,504
2016-12-27T14:39:47.728Z,488
2016-12-27T14:40:47.741Z,468
2016-12-27T14:42:02.680Z,440
2016-12-27T14:42:47.781Z,428
2016-12-27T14:43:47.801Z,408
2016-12-27T14:45:47.843Z,368
2016-12-27T14:47:02.775Z,340
2016-12-27T14:47:47.877Z,324
2016-12-27T14:48:47.891Z,308
2016-12-27T14:49:47.912Z,288
2016-12-27T14:50:47.931Z,272
2016-12-27T14:52:47.967Z,244
2016-12-27T14:54:02.904Z,224
2016-12-27T14:56:02.940Z,192
2016-12-27T14:57:02.962Z,176
2016-12-27T14:58:48.077Z,156
2016-12-27T15:00:48.123Z,132
2016-12-27T15:01:48.136Z,124